Time;durP1;ratioP1;P1;durP2;ratioP2;P2;SDS_P1;SDS_P2;PMS_P1;PMS_P2;Temp;Humidity;BMP_temperature;BMP_pressure;BME280_temperature;BME280_humidity;BME280_pressure;Samples;Min_cycle;Max_cycle;Signal;HPM_P1;HPM_P2
2022/01/11 00:00:09;;;;;;;;;;;;;;;;;;4985843;28;20383;-76
2022/01/11 00:02:39;;;;;;;;;;;;;;;;;;4977219;28;19988;-76
2022/01/11 00:05:06;;;;;;;;;;;;;;;;;;4984470;28;19933;-76
2022/01/11 00:07:35;;;;;;;;;;;;;;;;;;4974098;28;19927;-76
2022/01/11 00:10:05;;;;;;;;;;;;;;;;;;4989265;28;19925;-76
2022/01/11 00:12:32;;;;;;;;;;;;;;;;;;4980573;28;19926;-76
2022/01/11 00:14:59;;;;;;;;;;;;;;;;;;4975042;28;20014;-76
2022/01/11 00:17:26;;;;;;;;;;;;;;;;;;4987013;28;19926;-76
2022/01/11 00:19:53;;;;;;;;;;;;;;;;;;4975573;28;19933;-76
2022/01/11 00:22:26;;;;;;;;;;;;;;;;;;4981177;28;19926;-77
2022/01/11 00:24:52;;;;;;;;;;;;;;;;;;4992268;28;19981;-77
2022/01/11 00:27:19;;;;;;;;;;;;;;;;;;4989205;28;19926;-77
2022/01/11 00:29:50;;;;;;;;;;;;;;;;;;4990513;28;19926;-77
2022/01/11 00:32:26;;;;;;;;;;;;;;;;;;4984398;28;19972;-77
2022/01/11 00:34:55;;;;;;;;;;;;;;;;;;4980102;28;19926;-75
2022/01/11 00:37:22;;;;;;;;;;;;;;;;;;4989224;28;19977;-77
2022/01/11 00:39:50;;;;;;;;;;;;;;;;;;4974571;28;19930;-77
2022/01/11 00:42:17;;;;;;;;;;;;;;;;;;4977404;28;19938;-77
2022/01/11 00:44:44;;;;;;;;;;;;;;;;;;4988308;28;19932;-76
2022/01/11 00:47:11;;;;;;;;;;;;;;;;;;4988329;28;19926;-76
2022/01/11 00:49:40;;;;;;;;;;;;;;;;;;4984913;28;20013;-76
2022/01/11 00:52:07;;;;;;;;;;;;;;;;;;4986784;28;19934;-76
2022/01/11 00:54:34;;;;;;;;;;;;;;;;;;4980007;28;19926;-76
2022/01/11 00:57:01;;;;;;;;;;;;;;;;;;4997986;28;19938;-76
2022/01/11 00:59:28;;;;;;;;;;;;;;;;;;4992717;28;19933;-77
2022/01/11 01:01:55;;;;;;;;;;;;;;;;;;4996524;28;20016;-76
2022/01/11 01:04:22;;;;;;;;;;;;;;;;;;5000276;28;19926;-75
2022/01/11 01:06:48;;;;;;;;;;;;;;;;;;4988671;28;20412;-76
2022/01/11 01:09:15;;;;;;;;;;;;;;;;;;4991402;28;19933;-76
2022/01/11 01:11:44;;;;;;;;;;;;;;;;;;4982021;28;19977;-76
2022/01/11 01:14:11;;;;;;;;;;;;;;;;;;4985447;28;19930;-75
2022/01/11 01:16:38;;;;;;;;;;;;;;;;;;4978774;28;19948;-76
2022/01/11 01:19:05;;;;;;;;;;;;;;;;;;4991474;28;20310;-76
2022/01/11 01:21:37;;;;;;;;;;;;;;;;;;4982683;28;20381;-75
2022/01/11 01:24:04;;;;;;;;;;;;;;;;;;4990162;28;19933;-76
2022/01/11 01:26:31;;;;;;;;;;;;;;;;;;4982555;28;19933;-76
2022/01/11 01:28:59;;;;;;;;;;;;;;;;;;4979423;28;20020;-76
2022/01/11 01:31:26;;;;;;;;;;;;;;;;;;4978546;28;19934;-76
2022/01/11 01:33:53;;;;;;;;;;;;;;;;;;4977997;28;19942;-75
2022/01/11 01:36:20;;;;;;;;;;;;;;;;;;4984613;28;19973;-75
2022/01/11 01:38:47;;;;;;;;;;;;;;;;;;4984520;28;19926;-76
2022/01/11 01:41:16;;;;;;;;;;;;;;;;;;4977729;28;19926;-76
2022/01/11 01:43:43;;;;;;;;;;;;;;;;;;4988463;28;19932;-76
2022/01/11 01:46:10;;;;;;;;;;;;;;;;;;4981410;28;19930;-76
2022/01/11 01:48:37;;;;;;;;;;;;;;;;;;4978218;28;19926;-76
2022/01/11 01:51:04;;;;;;;;;;;;;;;;;;4979095;28;19934;-77
2022/01/11 01:53:31;;;;;;;;;;;;;;;;;;4986855;28;19996;-77
2022/01/11 01:55:58;;;;;;;;;;;;;;;;;;4992133;28;19930;-76
2022/01/11 01:58:26;;;;;;;;;;;;;;;;;;4990502;28;19933;-77
2022/01/11 02:00:55;;;;;;;;;;;;;;;;;;4986035;28;19930;-76
2022/01/11 02:03:26;;;;;;;;;;;;;;;;;;4991952;28;19941;-76
2022/01/11 02:05:53;;;;;;;;;;;;;;;;;;4984678;28;20471;-76
2022/01/11 02:08:20;;;;;;;;;;;;;;;;;;4981680;28;19926;-76
2022/01/11 02:10:47;;;;;;;;;;;;;;;;;;4985025;28;19961;-76
2022/01/11 02:13:14;;;;;;;;;;;;;;;;;;4988064;28;19977;-76
2022/01/11 02:15:41;;;;;;;;;;;;;;;;;;4988056;28;19962;-77
2022/01/11 02:18:08;;;;;;;;;;;;;;;;;;4990101;28;19973;-76
2022/01/11 02:20:35;;;;;;;;;;;;;;;;;;4988918;28;19932;-76
2022/01/11 02:23:02;;;;;;;;;;;;;;;;;;4984231;28;19972;-77
2022/01/11 02:25:29;;;;;;;;;;;;;;;;;;4997387;28;19956;-76
2022/01/11 02:27:56;;;;;;;;;;;;;;;;;;4989341;28;20405;-77
2022/01/11 02:30:31;;;;;;;;;;;;;;;;;;4993285;28;20293;-77
2022/01/11 02:32:58;;;;;;;;;;;;;;;;;;4980555;28;19930;-77
2022/01/11 02:35:25;;;;;;;;;;;;;;;;;;4985540;28;20404;-77
2022/01/11 02:37:52;;;;;;;;;;;;;;;;;;4984107;28;19932;-75
2022/01/11 02:40:19;;;;;;;;;;;;;;;;;;4982293;28;19926;-76
2022/01/11 02:42:45;;;;;;;;;;;;;;;;;;4980721;28;19934;-76
2022/01/11 02:45:12;;;;;;;;;;;;;;;;;;4986387;28;20484;-76
2022/01/11 02:47:39;;;;;;;;;;;;;;;;;;4986736;28;19926;-76
2022/01/11 02:50:06;;;;;;;;;;;;;;;;;;4990510;28;20009;-76
2022/01/11 02:52:33;;;;;;;;;;;;;;;;;;4989944;28;19926;-76
2022/01/11 02:55:00;;;;;;;;;;;;;;;;;;4994636;28;19926;-76
2022/01/11 02:57:27;;;;;;;;;;;;;;;;;;4983367;28;19926;-77
2022/01/11 02:59:54;;;;;;;;;;;;;;;;;;4982622;28;20013;-77
2022/01/11 03:02:21;;;;;;;;;;;;;;;;;;4982322;28;20017;-77
2022/01/11 03:04:48;;;;;;;;;;;;;;;;;;4986101;28;20461;-77
2022/01/11 03:07:15;;;;;;;;;;;;;;;;;;4980655;28;19932;-77
2022/01/11 03:09:55;;;;;;;;;;;;;;;;;;4988079;28;19965;-76
2022/01/11 03:12:23;;;;;;;;;;;;;;;;;;4978453;28;19927;-76
2022/01/11 03:14:49;;;;;;;;;;;;;;;;;;4976945;28;20016;-76
2022/01/11 03:17:16;;;;;;;;;;;;;;;;;;4976586;28;20293;-76
2022/01/11 03:19:43;;;;;;;;;;;;;;;;;;4985658;28;19933;-77
2022/01/11 03:22:10;;;;;;;;;;;;;;;;;;4988527;28;19933;-77
2022/01/11 03:24:38;;;;;;;;;;;;;;;;;;4993198;28;20293;-77
2022/01/11 03:27:06;;;;;;;;;;;;;;;;;;4980927;28;19933;-77
2022/01/11 03:29:33;;;;;;;;;;;;;;;;;;4981495;28;19926;-77
2022/01/11 03:32:00;;;;;;;;;;;;;;;;;;4984017;28;19941;-77
2022/01/11 03:34:27;;;;;;;;;;;;;;;;;;4989551;28;19934;-76
2022/01/11 03:36:54;;;;;;;;;;;;;;;;;;4986446;28;19926;-76
2022/01/11 03:39:21;;;;;;;;;;;;;;;;;;4978394;28;19933;-75
2022/01/11 03:41:48;;;;;;;;;;;;;;;;;;4987828;28;20397;-76
2022/01/11 03:44:15;;;;;;;;;;;;;;;;;;4981678;28;19925;-75
2022/01/11 03:46:42;;;;;;;;;;;;;;;;;;4979175;28;19933;-75
2022/01/11 03:49:09;;;;;;;;;;;;;;;;;;4981601;28;19933;-75
2022/01/11 03:51:38;;;;;;;;;;;;;;;;;;4980297;28;19926;-76
2022/01/11 03:54:10;;;;;;;;;;;;;;;;;;4989074;28;19949;-75
2022/01/11 03:56:37;;;;;;;;;;;;;;;;;;4991916;28;19989;-77
2022/01/11 03:59:06;;;;;;;;;;;;;;;;;;4992910;28;20453;-77
2022/01/11 04:01:33;;;;;;;;;;;;;;;;;;4986009;28;20024;-77
2022/01/11 04:04:00;;;;;;;;;;;;;;;;;;4991629;28;19926;-77
2022/01/11 04:06:27;;;;;;;;;;;;;;;;;;4991728;28;19925;-77
2022/01/11 04:08:54;;;;;;;;;;;;;;;;;;4983509;28;20377;-77
2022/01/11 04:11:21;;;;;;;;;;;;;;;;;;4983936;28;19926;-77
2022/01/11 04:13:48;;;;;;;;;;;;;;;;;;4985640;28;19925;-77
2022/01/11 04:16:15;;;;;;;;;;;;;;;;;;4989976;28;19925;-74
2022/01/11 04:18:42;;;;;;;;;;;;;;;;;;4981485;28;19927;-74
2022/01/11 04:21:09;;;;;;;;;;;;;;;;;;4982910;28;19944;-74
2022/01/11 04:23:36;;;;;;;;;;;;;;;;;;4990420;28;19925;-74
2022/01/11 04:26:03;;;;;;;;;;;;;;;;;;4982803;28;20017;-74
2022/01/11 04:28:29;;;;;;;;;;;;;;;;;;4989458;28;19932;-73
2022/01/11 04:30:58;;;;;;;;;;;;;;;;;;4987159;28;20325;-73
2022/01/11 04:33:24;;;;;;;;;;;;;;;;;;4987641;28;19972;-74
2022/01/11 04:35:51;;;;;;;;;;;;;;;;;;4984863;28;19933;-73
2022/01/11 04:38:18;;;;;;;;;;;;;;;;;;4978784;28;20327;-74
2022/01/11 04:40:45;;;;;;;;;;;;;;;;;;4985091;28;19932;-74
2022/01/11 04:43:12;;;;;;;;;;;;;;;;;;4978576;28;19933;-74
2022/01/11 04:45:39;;;;;;;;;;;;;;;;;;5002120;28;19926;-74
2022/01/11 04:48:06;;;;;;;;;;;;;;;;;;4986753;28;20385;-74
2022/01/11 04:50:33;;;;;;;;;;;;;;;;;;4984471;28;19932;-74
2022/01/11 04:53:00;;;;;;;;;;;;;;;;;;4981720;28;19926;-74
2022/01/11 04:55:27;;;;;;;;;;;;;;;;;;4977168;28;20013;-74
2022/01/11 04:57:54;;;;;;;;;;;;;;;;;;4988702;28;19926;-74
2022/01/11 05:00:21;;;;;;;;;;;;;;;;;;4983639;28;20400;-73
2022/01/11 05:02:48;;;;;;;;;;;;;;;;;;4989018;28;19931;-74
2022/01/11 05:05:15;;;;;;;;;;;;;;;;;;4984660;28;19926;-74
2022/01/11 05:07:42;;;;;;;;;;;;;;;;;;4990444;28;19934;-73
2022/01/11 05:10:09;;;;;;;;;;;;;;;;;;4986568;28;20008;-73
2022/01/11 05:12:38;;;;;;;;;;;;;;;;;;4986653;28;19938;-74
2022/01/11 05:15:05;;;;;;;;;;;;;;;;;;4989193;28;19981;-74
2022/01/11 05:17:32;;;;;;;;;;;;;;;;;;4979807;28;19930;-73
2022/01/11 05:19:59;;;;;;;;;;;;;;;;;;4991996;28;20289;-73
2022/01/11 05:22:26;;;;;;;;;;;;;;;;;;4975662;28;19948;-74
2022/01/11 05:24:53;;;;;;;;;;;;;;;;;;4977397;28;20393;-73
2022/01/11 05:27:20;;;;;;;;;;;;;;;;;;4986425;28;19926;-73
2022/01/11 05:29:47;;;;;;;;;;;;;;;;;;4985872;28;19932;-73
2022/01/11 05:32:28;;;;;;;;;;;;;;;;;;5023516;28;20326;-72
2022/01/11 05:34:55;;;;;;;;;;;;;;;;;;5026563;28;20405;-73
2022/01/11 05:37:22;;;;;;;;;;;;;;;;;;5020101;28;19932;-72
2022/01/11 05:39:51;;;;;;;;;;;;;;;;;;5009161;28;19925;-72
2022/01/11 05:42:18;;;;;;;;;;;;;;;;;;5015802;28;19969;-72
2022/01/11 05:44:45;;;;;;;;;;;;;;;;;;5023401;28;19931;-72
2022/01/11 05:47:12;;;;;;;;;;;;;;;;;;5016793;28;19932;-73
2022/01/11 05:49:39;;;;;;;;;;;;;;;;;;5023979;28;19926;-73
2022/01/11 05:52:05;;;;;;;;;;;;;;;;;;5017388;28;19925;-72
2022/01/11 05:54:32;;;;;;;;;;;;;;;;;;5009952;28;19925;-73
2022/01/11 05:56:59;;;;;;;;;;;;;;;;;;5021299;28;20008;-73
2022/01/11 05:59:26;;;;;;;;;;;;;;;;;;5009760;28;20016;-73
2022/01/11 06:01:53;;;;;;;;;;;;;;;;;;5022685;28;20376;-73
2022/01/11 06:04:20;;;;;;;;;;;;;;;;;;5006900;28;19934;-73
2022/01/11 06:06:47;;;;;;;;;;;;;;;;;;5020232;28;20008;-73
2022/01/11 06:09:14;;;;;;;;;;;;;;;;;;5020981;28;20463;-73
2022/01/11 06:11:41;;;;;;;;;;;;;;;;;;5020439;28;19925;-73
2022/01/11 06:14:08;;;;;;;;;;;;;;;;;;5023921;28;19934;-73
2022/01/11 06:16:36;;;;;;;;;;;;;;;;;;5027326;28;20024;-73
2022/01/11 06:19:03;;;;;;;;;;;;;;;;;;5025032;28;19929;-74
2022/01/11 06:21:30;;;;;;;;;;;;;;;;;;5012534;28;19937;-73
2022/01/11 06:23:57;;;;;;;;;;;;;;;;;;5011374;28;19927;-73
2022/01/11 06:26:24;;;;;;;;;;;;;;;;;;5005353;28;20276;-73
2022/01/11 06:28:51;;;;;;;;;;;;;;;;;;5013675;28;20015;-73
2022/01/11 06:31:18;;;;;;;;;;;;;;;;;;5016727;28;19956;-72
2022/01/11 06:33:45;;;;;;;;;;;;;;;;;;5020994;28;19996;-72
2022/01/11 06:36:12;;;;;;;;;;;;;;;;;;5014746;28;20310;-72
2022/01/11 06:38:38;;;;;;;;;;;;;;;;;;5016215;28;20350;-72
2022/01/11 06:41:05;;;;;;;;;;;;;;;;;;5007909;28;20406;-72
2022/01/11 06:43:32;;;;;;;;;;;;;;;;;;4996437;28;19940;-72
2022/01/11 06:45:59;;;;;;;;;;;;;;;;;;5000078;28;19993;-72
2022/01/11 06:48:26;;;;;;;;;;;;;;;;;;4995258;28;20447;-73
2022/01/11 06:50:53;;;;;;;;;;;;;;;;;;5002409;28;19982;-73
2022/01/11 06:53:20;;;;;;;;;;;;;;;;;;5001050;28;20405;-73
2022/01/11 06:55:48;;;;;;;;;;;;;;;;;;5001109;28;19925;-72
2022/01/11 06:58:16;;;;;;;;;;;;;;;;;;5002778;28;19933;-72
2022/01/11 07:00:46;;;;;;;;;;;;;;;;;;4995234;28;19925;-74
2022/01/11 07:03:15;;;;;;;;;;;;;;;;;;5017282;28;19926;-72
2022/01/11 07:05:42;;;;;;;;;;;;;;;;;;4998779;28;20031;-74
2022/01/11 07:08:09;;;;;;;;;;;;;;;;;;5002836;28;20016;-75
2022/01/11 07:10:36;;;;;;;;;;;;;;;;;;5001234;28;19926;-76
2022/01/11 07:13:03;;;;;;;;;;;;;;;;;;5004124;28;19933;-76
2022/01/11 07:15:30;;;;;;;;;;;;;;;;;;4998408;28;19930;-75
2022/01/11 07:17:57;;;;;;;;;;;;;;;;;;4999988;28;20367;-76
2022/01/11 07:20:24;;;;;;;;;;;;;;;;;;4998594;28;20947;-76
2022/01/11 07:22:51;;;;;;;;;;;;;;;;;;5005386;28;19929;-76
2022/01/11 07:25:18;;;;;;;;;;;;;;;;;;5007298;28;19976;-76
2022/01/11 07:27:45;;;;;;;;;;;;;;;;;;5000293;28;20039;-77
2022/01/11 07:30:12;;;;;;;;;;;;;;;;;;5005757;28;19939;-76
2022/01/11 07:32:39;;;;;;;;;;;;;;;;;;5007657;28;19926;-76
2022/01/11 07:35:05;;;;;;;;;;;;;;;;;;5010019;28;19925;-76
2022/01/11 07:37:32;;;;;;;;;;;;;;;;;;5009017;28;19932;-77
2022/01/11 07:39:59;;;;;;;;;;;;;;;;;;5001120;28;19925;-76
2022/01/11 07:42:26;;;;;;;;;;;;;;;;;;4991419;28;20269;-76
2022/01/11 07:44:54;;;;;;;;;;;;;;;;;;5008882;28;19968;-75
2022/01/11 07:47:21;;;;;;;;;;;;;;;;;;5004619;28;19994;-76
2022/01/11 07:49:48;;;;;;;;;;;;;;;;;;5005081;28;19981;-75
2022/01/11 07:52:15;;;;;;;;;;;;;;;;;;5006562;28;19925;-76
2022/01/11 07:54:42;;;;;;;;;;;;;;;;;;5006665;28;20012;-76
2022/01/11 07:57:09;;;;;;;;;;;;;;;;;;5003922;28;19925;-76
2022/01/11 07:59:36;;;;;;;;;;;;;;;;;;4993162;28;19926;-76
2022/01/11 08:02:03;;;;;;;;;;;;;;;;;;5005432;28;20359;-76
2022/01/11 08:04:31;;;;;;;;;;;;;;;;;;4996929;28;19925;-76
2022/01/11 08:06:58;;;;;;;;;;;;;;;;;;5008669;28;19926;-76
2022/01/11 08:09:25;;;;;;;;;;;;;;;;;;4995915;23;19933;-75
2022/01/11 08:11:55;;;;;;;;;;;;;;;;;;4972717;28;19934;-75
2022/01/11 08:14:22;;;;;;;;;;;;;;;;;;5051010;23;20462;-76
2022/01/11 08:16:49;;;;;;;;;;;;;;;;;;5069755;28;19939;-75
2022/01/11 08:19:16;;;;;;;;;;;;;;;;;;5059925;28;19931;-75
2022/01/11 08:21:43;;;;;;;;;;;;;;;;;;5064524;28;19928;-76
2022/01/11 08:24:09;;;;;;;;;;;;;;;;;;5058968;28;20395;-76
2022/01/11 08:26:36;;;;;;;;;;;;;;;;;;5064024;28;20450;-75
2022/01/11 08:29:03;;;;;;;;;;;;;;;;;;5063278;28;20469;-75
2022/01/11 08:31:30;;;;;;;;;;;;;;;;;;5066803;28;19935;-76
2022/01/11 08:33:57;;;;;;;;;;;;;;;;;;5068195;28;19925;-76
2022/01/11 08:36:24;;;;;;;;;;;;;;;;;;5066575;28;19934;-76
2022/01/11 08:38:51;;;;;;;;;;;;;;;;;;5065534;28;19924;-75
2022/01/11 08:41:22;;;;;;;;;;;;;;;;;;5065771;28;19931;-75
2022/01/11 08:43:49;;;;;;;;;;;;;;;;;;5065009;28;20008;-75
2022/01/11 08:46:16;;;;;;;;;;;;;;;;;;5064346;28;19932;-76
2022/01/11 08:48:44;;;;;;;;;;;;;;;;;;5064373;28;19924;-76
2022/01/11 08:51:11;;;;;;;;;;;;;;;;;;5067527;28;19939;-76
2022/01/11 08:53:38;;;;;;;;;;;;;;;;;;5061091;28;19924;-75
2022/01/11 08:56:05;;;;;;;;;;;;;;;;;;5065462;28;20375;-76
2022/01/11 08:58:32;;;;;;;;;;;;;;;;;;5068735;28;19928;-76
2022/01/11 09:00:59;;;;;;;;;;;;;;;;;;5069074;28;19928;-76
2022/01/11 09:03:26;;;;;;;;;;;;;;;;;;5070651;28;19969;-75
2022/01/11 09:05:53;;;;;;;;;;;;;;;;;;5066664;28;20026;-76
2022/01/11 09:08:20;;;;;;;;;;;;;;;;;;5063774;28;19931;-76
2022/01/11 09:10:47;;;;;;;;;;;;;;;;;;5061369;28;19924;-76
2022/01/11 09:13:15;;;;;;;;;;;;;;;;;;5063592;28;20023;-75
2022/01/11 09:15:42;;;;;;;;;;;;;;;;;;5066086;28;19928;-75
2022/01/11 09:18:10;;;;;;;;;;;;;;;;;;5064778;28;19925;-76
2022/01/11 09:20:37;;;;;;;;;;;;;;;;;;5064697;28;19931;-76
2022/01/11 09:23:04;;;;;;;;;;;;;;;;;;5063069;28;19925;-76
2022/01/11 09:25:31;;;;;;;;;;;;;;;;;;5062715;28;20405;-76
2022/01/11 09:27:58;;;;;;;;;;;;;;;;;;5058800;28;19939;-75
2022/01/11 09:30:25;;;;;;;;;;;;;;;;;;5055227;28;19943;-76
2022/01/11 09:32:52;;;;;;;;;;;;;;;;;;5068459;28;20039;-77
2022/01/11 09:35:19;;;;;;;;;;;;;;;;;;5064464;28;20449;-77
2022/01/11 09:37:46;;;;;;;;;;;;;;;;;;5063395;28;20387;-76
2022/01/11 09:40:13;;;;;;;;;;;;;;;;;;5064954;28;19926;-77
2022/01/11 09:42:40;;;;;;;;;;;;;;;;;;5063875;28;20024;-77
2022/01/11 09:45:07;;;;;;;;;;;;;;;;;;5060979;28;20279;-76
2022/01/11 09:47:34;;;;;;;;;;;;;;;;;;5062814;28;20287;-76
2022/01/11 09:50:01;;;;;;;;;;;;;;;;;;5063490;28;19931;-76
2022/01/11 09:52:28;;;;;;;;;;;;;;;;;;5062948;28;19928;-76
2022/01/11 09:54:55;;;;;;;;;;;;;;;;;;5063807;28;19925;-77
2022/01/11 09:57:22;;;;;;;;;;;;;;;;;;5064172;28;19974;-76
2022/01/11 09:59:49;;;;;;;;;;;;;;;;;;5060741;28;20368;-76
2022/01/11 10:02:16;;;;;;;;;;;;;;;;;;5060985;28;20413;-76
2022/01/11 10:04:44;;;;;;;;;;;;;;;;;;5063781;28;20443;-76
2022/01/11 10:07:11;;;;;;;;;;;;;;;;;;5057899;28;20023;-76
2022/01/11 10:09:38;;;;;;;;;;;;;;;;;;5058709;28;19924;-75
2022/01/11 10:12:05;;;;;;;;;;;;;;;;;;5059479;28;20015;-75
2022/01/11 10:14:32;;;;;;;;;;;;;;;;;;5060596;28;19935;-75
2022/01/11 10:16:59;;;;;;;;;;;;;;;;;;5059691;28;19929;-70
2022/01/11 10:19:26;;;;;;;;;;;;;;;;;;5065604;28;19925;-72
2022/01/11 10:21:56;;;;;;;;;;;;;;;;;;5066007;28;19928;-71
2022/01/11 10:24:23;;;;;;;;;;;;;;;;;;5062918;28;20027;-71
2022/01/11 10:26:50;;;;;;;;;;;;;;;;;;5056682;28;19933;-71
2022/01/11 10:29:17;;;;;;;;;;;;;;;;;;5063584;28;20135;-72
2022/01/11 10:31:45;;;;;;;;;;;;;;;;;;5067142;28;19935;-71
2022/01/11 10:34:12;;;;;;;;;;;;;;;;;;5062697;28;19924;-71
2022/01/11 10:36:39;;;;;;;;;;;;;;;;;;5066332;28;19925;-71
2022/01/11 10:39:06;;;;;;;;;;;;;;;;;;5066897;28;20293;-72
2022/01/11 10:41:33;;;;;;;;;;;;;;;;;;5063172;28;19965;-72
2022/01/11 10:44:00;;;;;;;;;;;;;;;;;;5059230;28;20095;-72
2022/01/11 10:46:27;;;;;;;;;;;;;;;;;;5061163;28;20038;-72
2022/01/11 10:48:54;;;;;;;;;;;;;;;;;;5062241;28;19931;-72
2022/01/11 10:51:21;;;;;;;;;;;;;;;;;;5058856;28;19957;-71
2022/01/11 10:53:49;;;;;;;;;;;;;;;;;;5061562;28;20023;-72
2022/01/11 10:56:18;;;;;;;;;;;;;;;;;;5067506;28;19986;-72
2022/01/11 10:58:45;;;;;;;;;;;;;;;;;;5060039;28;20042;-71
2022/01/11 11:01:12;;;;;;;;;;;;;;;;;;5062084;28;20284;-72
2022/01/11 11:03:39;;;;;;;;;;;;;;;;;;5068950;28;19925;-72
2022/01/11 11:06:07;;;;;;;;;;;;;;;;;;5053024;28;20047;-74
2022/01/11 11:08:36;;;;;;;;;;;;;;;;;;5069177;28;19983;-76
2022/01/11 11:11:03;;;;;;;;;;;;;;;;;;5070601;28;19932;-76
2022/01/11 11:13:30;;;;;;;;;;;;;;;;;;5068806;28;20015;-77
2022/01/11 11:15:57;;;;;;;;;;;;;;;;;;5065614;28;19978;-76
2022/01/11 11:18:24;;;;;;;;;;;;;;;;;;5069192;28;20702;-78
2022/01/11 11:20:51;;;;;;;;;;;;;;;;;;5065413;28;19924;-76
2022/01/11 11:23:19;;;;;;;;;;;;;;;;;;5069167;28;20306;-76
2022/01/11 11:25:46;;;;;;;;;;;;;;;;;;5069014;28;19924;-76
2022/01/11 11:28:13;;;;;;;;;;;;;;;;;;5061271;28;19925;-77
2022/01/11 11:30:40;;;;;;;;;;;;;;;;;;5069071;28;20066;-74
2022/01/11 11:33:07;;;;;;;;;;;;;;;;;;5069300;28;19931;-75
2022/01/11 11:35:34;;;;;;;;;;;;;;;;;;5067538;28;19925;-75
2022/01/11 11:38:01;;;;;;;;;;;;;;;;;;5057061;28;19925;-75
2022/01/11 11:40:28;;;;;;;;;;;;;;;;;;5066106;28;19928;-75
2022/01/11 11:42:55;;;;;;;;;;;;;;;;;;5057101;28;19925;-75
2022/01/11 11:45:22;;;;;;;;;;;;;;;;;;5068169;28;19932;-75
2022/01/11 11:47:49;;;;;;;;;;;;;;;;;;5065639;28;19979;-75
2022/01/11 11:50:16;;;;;;;;;;;;;;;;;;5061809;28;19986;-74
2022/01/11 11:52:44;;;;;;;;;;;;;;;;;;5064909;28;20434;-75
2022/01/11 11:55:11;;;;;;;;;;;;;;;;;;5065638;28;19925;-74
2022/01/11 11:57:39;;;;;;;;;;;;;;;;;;5064501;28;19993;-74
2022/01/11 12:00:06;;;;;;;;;;;;;;;;;;5066143;28;19994;-74
2022/01/11 12:02:33;;;;;;;;;;;;;;;;;;5070147;28;19925;-74
2022/01/11 12:05:00;;;;;;;;;;;;;;;;;;5066743;28;20054;-75
2022/01/11 12:07:27;;;;;;;;;;;;;;;;;;5062297;28;19931;-75
2022/01/11 12:09:55;;;;;;;;;;;;;;;;;;5067320;28;19931;-76
2022/01/11 12:12:21;;;;;;;;;;;;;;;;;;5061776;28;19929;-74
2022/01/11 12:14:48;;;;;;;;;;;;;;;;;;5067149;28;19928;-75
2022/01/11 12:17:17;;;;;;;;;;;;;;;;;;5060514;28;19924;-76
2022/01/11 12:19:43;;;;;;;;;;;;;;;;;;5056772;28;20375;-76
2022/01/11 12:22:19;;;;;;;;;;;5.90;99.90;;;;;;5065604;28;19931;-75
2022/01/11 12:24:46;;;;;;;;;;;6.00;95.60;;;;;;5061872;28;19933;-75
2022/01/11 12:27:15;;;;;;;;;;;6.20;95.40;;;;;;5068842;28;19925;-75
2022/01/11 12:29:52;;;;;;;;;;;6.30;95.10;;;;;;5064355;28;19924;-75
2022/01/11 12:32:19;;;;;;;;;;;6.60;94.80;;;;;;5054277;28;19924;-75
2022/01/11 12:34:53;;;;;;;;;;;6.80;94.50;;;;;;5065835;28;20022;-75
2022/01/11 12:37:26;;;;;;;;;;;6.90;94.20;;;;;;5063637;28;20450;-77
2022/01/11 12:40:05;;;;;;;;;;;7.00;93.60;;;;;;5057917;28;20391;-72
2022/01/11 12:42:32;;;;;;;;;;;6.90;93.10;;;;;;5071005;28;19925;-80
2022/01/11 12:47:44;;;;;;;;;;;6.90;93.10;;;;;;5063415;28;20629;-74
2022/01/11 12:50:12;;;;;;;;;;;7.10;92.60;;;;;;5063780;28;19925;-75
2022/01/11 12:52:57;;;;;;;;;;;7.10;92.40;;;;;;5068533;28;19924;-78
2022/01/11 12:55:24;;;;;;;;;;;7.10;91.00;;;;;;5062964;28;19928;-77
2022/01/11 12:57:51;;;;;;;;;;;7.20;91.30;;;;;;5067348;28;20000;-77
2022/01/11 13:00:18;;;;;;;;;;;7.20;91.00;;;;;;5068142;28;19932;-78
2022/01/11 13:02:44;;;;;;;;;;;7.20;90.00;;;;;;5072053;28;19959;-78
2022/01/11 13:05:13;;;;;;;;;;;7.20;89.10;;;;;;5066302;28;19983;-78
2022/01/11 13:07:40;;;;;;;;;;;7.10;89.10;;;;;;5068297;28;19929;-77
2022/01/11 13:10:11;;;;;;;;;;;7.00;89.00;;;;;;5067953;28;19925;-77
2022/01/11 13:12:39;;;;;;;;;;;6.80;88.20;;;;;;5072879;28;19933;-78
2022/01/11 13:15:11;;;;;;;;;;;6.80;88.60;;;;;;5065326;28;19924;-78
2022/01/11 13:17:52;;;;;;;;;;;6.80;88.60;;;;;;5067302;28;19931;-77
2022/01/11 13:20:18;;;;;;;;;;;6.80;88.00;;;;;;5073957;28;19998;-76
2022/01/11 13:23:03;;;;;;;;;;;6.80;88.90;;;;;;5065239;28;19943;-77
2022/01/11 13:25:35;;;;;;;;;;;6.90;88.60;;;;;;5074126;28;20379;-77
2022/01/11 13:28:02;;;;;;;;;;;6.90;88.60;;;;;;5073806;28;19934;-77
2022/01/11 13:30:34;;;;;;;;;;;7.00;89.20;;;;;;5076723;28;20011;-77
2022/01/11 13:33:00;;;;;;;;;;;7.00;88.40;;;;;;5068813;28;19932;-77
2022/01/11 13:35:27;;;;;;;;;;;6.90;88.00;;;;;;5079763;28;20015;-76
2022/01/11 13:37:54;;;;;;;;;;;7.00;88.70;;;;;;5069256;28;19925;-76
2022/01/11 13:40:25;;;;;;;;;;;7.00;88.80;;;;;;5067508;28;19924;-77
2022/01/11 13:43:01;;;;;;;;;;;7.00;87.60;;;;;;5067213;28;19983;-76
2022/01/11 13:45:34;;;;;;;;;;;7.00;86.10;;;;;;5070776;28;19960;-76
2022/01/11 13:48:07;;;;;;;;;;;7.00;85.00;;;;;;5067739;28;19925;-76
2022/01/11 13:50:46;;;;;;;;;;;7.00;85.50;;;;;;5064465;28;19984;-76
2022/01/11 13:53:19;;;;;;;;;;;7.00;84.40;;;;;;5070355;28;19933;-75
2022/01/11 13:55:47;;;;;;;;;;;7.00;83.90;;;;;;5069521;28;20019;-76
2022/01/11 13:58:17;;;;;;;;;;;7.00;81.90;;;;;;5072762;28;19928;-76
2022/01/11 14:00:43;;;;;;;;;;;7.00;79.80;;;;;;5071394;28;20290;-76
2022/01/11 14:03:14;;;;;;;;;;;7.00;75.60;;;;;;5067631;28;20003;-76
2022/01/11 14:05:41;;;;;;;;;;;7.00;73.70;;;;;;5075908;28;20015;-76
2022/01/11 14:08:10;;;;;;;;;;;7.00;73.70;;;;;;5072287;28;19932;-77
2022/01/11 14:10:37;;;;;;;;;;;7.00;73.30;;;;;;5069081;28;19932;-77
2022/01/11 14:13:06;;;;;;;;;;;7.00;73.90;;;;;;5073535;28;20007;-77
2022/01/11 14:15:34;;;;;;;;;;;7.00;74.40;;;;;;5075352;28;19988;-77
2022/01/11 14:18:02;;;;;;;;;;;7.00;74.30;;;;;;5073950;28;19986;-76
2022/01/11 14:20:29;;;;;;;;;;;7.00;74.20;;;;;;5070532;28;20307;-76
2022/01/11 14:22:58;;;;;;;;;;;7.00;73.80;;;;;;5067421;28;19928;-76
2022/01/11 14:25:25;;;;;;;;;;;7.00;73.50;;;;;;5077508;28;19932;-77
2022/01/11 14:27:59;;;;;;;;;;;6.90;74.40;;;;;;5074252;28;20245;-76
2022/01/11 14:30:33;;;;;;;;;;;6.90;75.80;;;;;;5068259;28;19929;-76
2022/01/11 14:33:01;;;;;;;;;;;6.80;76.10;;;;;;5059389;28;19929;-75
2022/01/11 14:35:28;;;;;;;;;;;6.80;75.00;;;;;;5070282;28;19924;-76
2022/01/11 14:38:02;;;;;;;;;;;6.70;75.00;;;;;;5068698;28;20409;-75
2022/01/11 14:40:29;;;;;;;;;;;6.60;74.80;;;;;;5073057;28;20008;-76
2022/01/11 14:43:07;;;;;;;;;;;6.60;75.40;;;;;;5070795;28;19932;-75
2022/01/11 14:45:37;;;;;;;;;;;6.60;75.80;;;;;;5068573;28;20027;-75
2022/01/11 14:48:05;;;;;;;;;;;6.50;76.10;;;;;;5065579;28;19924;-76
2022/01/11 14:50:32;;;;;;;;;;;6.50;75.80;;;;;;5066272;28;20012;-76
2022/01/11 14:53:01;;;;;;;;;;;6.40;76.50;;;;;;5062497;28;19929;-76
2022/01/11 14:55:42;;;;;;;;;;;6.40;76.60;;;;;;5064411;28;20013;-76
2022/01/11 14:58:09;;;;;;;;;;;6.40;77.10;;;;;;5069082;28;19932;-76
2022/01/11 15:00:39;;;;;;;;;;;6.30;77.80;;;;;;5062112;28;19939;-78
2022/01/11 15:03:07;;;;;;;;;;;6.30;77.90;;;;;;5069044;28;20391;-76
2022/01/11 15:05:35;;;;;;;;;;;6.20;77.50;;;;;;5049621;28;20002;-77
2022/01/11 15:08:04;;;;;;;;;;;6.20;78.00;;;;;;5067533;28;19932;-75
2022/01/11 15:10:31;;;;;;;;;;;6.20;78.70;;;;;;5068406;28;19924;-78
2022/01/11 15:12:58;;;;;;;;;;;6.10;78.50;;;;;;5067263;28;19932;-77
2022/01/11 15:15:26;;;;;;;;;;;6.10;79.00;;;;;;5067551;28;19975;-77
2022/01/11 15:17:53;;;;;;;;;;;6.00;79.40;;;;;;5064141;28;19946;-78
2022/01/11 15:20:21;;;;;;;;;;;6.00;80.10;;;;;;5067128;28;20290;-78
2022/01/11 15:22:50;;;;;;;;;;;5.90;80.70;;;;;;5064415;28;19935;-78
2022/01/11 15:25:17;;;;;;;;;;;5.90;81.10;;;;;;5069048;28;19928;-77
2022/01/11 15:27:44;;;;;;;;;;;5.80;81.90;;;;;;5066173;28;19933;-78
2022/01/11 15:30:12;;;;;;;;;;;5.80;81.90;;;;;;5074819;28;19970;-77
2022/01/11 15:32:39;;;;;;;;;;;5.70;82.00;;;;;;5068323;28;19925;-77
2022/01/11 15:35:06;;;;;;;;;;;5.70;82.50;;;;;;5069207;28;19936;-78
2022/01/11 15:37:34;;;;;;;;;;;5.60;82.90;;;;;;5064558;28;19964;-80
2022/01/11 15:40:01;;;;;;;;;;;5.60;82.60;;;;;;5082574;28;19924;-79
2022/01/11 15:42:28;;;;;;;;;;;5.50;83.10;;;;;;5077091;28;19995;-78
2022/01/11 15:44:55;;;;;;;;;;;5.50;83.00;;;;;;5071433;28;20019;-81
2022/01/11 15:47:21;;;;;;;;;;;5.40;82.60;;;;;;5084984;28;19925;-79
2022/01/11 15:49:48;;;;;;;;;;;5.40;82.30;;;;;;5083532;28;19928;-80
2022/01/11 15:52:15;;;;;;;;;;;5.30;81.90;;;;;;5078138;28;19925;-76
2022/01/11 15:54:43;;;;;;;;;;;5.20;82.10;;;;;;5074761;28;19924;-78
2022/01/11 15:57:10;;;;;;;;;;;5.20;82.10;;;;;;5079560;28;19961;-79
2022/01/11 15:59:37;;;;;;;;;;;5.10;82.80;;;;;;5087112;28;19908;-78
2022/01/11 16:02:04;;;;;;;;;;;5.00;83.30;;;;;;5080352;28;19929;-80
2022/01/11 16:04:31;;;;;;;;;;;4.90;83.90;;;;;;5087455;28;19939;-81
2022/01/11 16:06:57;;;;;;;;;;;4.80;84.40;;;;;;5077690;28;19932;-78
2022/01/11 16:09:26;;;;;;;;;;;4.70;85.00;;;;;;5067274;28;19925;-79
2022/01/11 16:11:55;;;;;;;;;;;4.70;85.80;;;;;;5080061;28;19928;-78
2022/01/11 16:14:21;;;;;;;;;;;4.60;86.60;;;;;;5067722;28;19932;-78